createdAt,value
2022-12-29T00:00:02.558Z,994.81
2022-12-29T00:01:02.729Z,994.60
2022-12-29T00:02:02.650Z,994.66
2022-12-29T00:03:02.709Z,994.82
2022-12-29T00:04:02.651Z,994.55
2022-12-29T00:05:02.640Z,994.85
2022-12-29T00:06:02.735Z,994.72
2022-12-29T00:07:02.486Z,994.58
2022-12-29T00:08:02.725Z,994.75
2022-12-29T00:09:02.916Z,994.73
2022-12-29T00:10:02.549Z,994.73
2022-12-29T00:11:02.573Z,994.71
2022-12-29T00:12:02.423Z,994.66
2022-12-29T00:13:02.448Z,994.72
2022-12-29T00:15:06.654Z,994.67
2022-12-29T00:16:04.360Z,994.53
2022-12-29T00:17:04.331Z,994.69
2022-12-29T00:18:04.270Z,994.67
2022-12-29T00:19:04.285Z,994.72
2022-12-29T00:20:04.585Z,994.72
2022-12-29T00:21:04.258Z,994.77
2022-12-29T00:22:04.283Z,994.72
2022-12-29T00:23:04.454Z,994.53
2022-12-29T00:24:04.317Z,994.55
2022-12-29T00:25:04.257Z,994.44
2022-12-29T00:26:04.199Z,994.38
2022-12-29T00:27:04.174Z,994.63
2022-12-29T00:28:07.518Z,994.59
2022-12-29T00:29:04.232Z,994.50
2022-12-29T00:30:04.079Z,994.38
2022-12-29T00:31:04.127Z,994.35
2022-12-29T00:32:04.033Z,994.35
2022-12-29T00:33:04.266Z,994.24
2022-12-29T00:34:04.176Z,994.43
2022-12-29T00:35:04.260Z,994.27
2022-12-29T00:36:04.040Z,994.35
2022-12-29T00:37:04.114Z,994.16
2022-12-29T00:38:04.039Z,994.17
2022-12-29T00:39:04.249Z,994.22
2022-12-29T00:40:04.104Z,994.14
2022-12-29T00:41:04.077Z,994.06
2022-12-29T00:42:04.035Z,994.18
2022-12-29T00:43:03.984Z,994.22
2022-12-29T00:44:03.960Z,994.05
2022-12-29T00:45:03.997Z,994.17
2022-12-29T00:46:03.959Z,994.16
2022-12-29T00:47:04.000Z,994.13
2022-12-29T00:48:03.871Z,994.09
2022-12-29T00:49:03.940Z,994.10
2022-12-29T00:50:03.978Z,994.40
2022-12-29T00:51:06.690Z,994.24
2022-12-29T00:52:03.887Z,994.19
2022-12-29T00:53:03.867Z,994.20
2022-12-29T00:54:03.832Z,994.39
2022-12-29T00:55:03.771Z,994.15
2022-12-29T00:56:03.852Z,994.02
2022-12-29T00:57:03.776Z,994.19
2022-12-29T00:58:03.901Z,994.23
2022-12-29T00:59:03.872Z,994.33
2022-12-29T01:00:03.821Z,994.15
2022-12-29T01:01:03.853Z,994.14
2022-12-29T01:02:11.486Z,994.02
2022-12-29T01:03:04.186Z,994.09
2022-12-29T01:04:04.711Z,994.17
2022-12-29T01:05:11.210Z,994.18
2022-12-29T01:06:03.749Z,994.14
2022-12-29T01:07:03.741Z,994.09
2022-12-29T01:08:03.637Z,994.08
2022-12-29T01:09:03.633Z,994.07
2022-12-29T01:10:03.692Z,993.91
2022-12-29T01:11:03.607Z,994.08
2022-12-29T01:12:03.623Z,994.04
2022-12-29T01:13:03.587Z,993.90
2022-12-29T01:14:03.587Z,993.98
2022-12-29T01:15:03.562Z,993.93
2022-12-29T01:16:03.623Z,994.01
2022-12-29T01:17:03.537Z,994.06
2022-12-29T01:18:03.562Z,993.98
2022-12-29T01:19:03.532Z,993.85
2022-12-29T01:20:03.525Z,993.84
2022-12-29T01:21:03.513Z,993.84
2022-12-29T01:22:03.560Z,993.85
2022-12-29T01:23:03.500Z,993.89
2022-12-29T01:24:03.476Z,993.80
2022-12-29T01:25:03.447Z,993.94
2022-12-29T01:26:03.431Z,993.81
2022-12-29T01:27:03.427Z,993.80
2022-12-29T01:28:03.427Z,993.87
2022-12-29T01:29:03.394Z,993.88
2022-12-29T01:30:03.445Z,993.87
2022-12-29T01:31:03.381Z,993.86
2022-12-29T01:32:03.466Z,993.77
2022-12-29T01:33:03.413Z,993.83
2022-12-29T01:34:03.364Z,993.63
2022-12-29T01:35:03.325Z,993.75
2022-12-29T01:36:03.351Z,993.81
2022-12-29T01:37:03.328Z,993.80
2022-12-29T01:38:03.333Z,993.70
2022-12-29T01:39:03.314Z,993.81
2022-12-29T01:40:03.294Z,993.98
2022-12-29T01:41:03.287Z,993.88
2022-12-29T01:42:03.284Z,993.92
2022-12-29T01:43:03.271Z,993.92
2022-12-29T01:44:03.285Z,993.85
2022-12-29T01:45:03.241Z,993.79
2022-12-29T01:46:03.401Z,994.06
2022-12-29T01:47:03.236Z,993.84
2022-12-29T01:48:03.218Z,993.82
2022-12-29T01:49:03.175Z,993.90
2022-12-29T01:50:03.236Z,993.85
2022-12-29T01:51:03.181Z,993.75
2022-12-29T01:52:03.187Z,993.86
2022-12-29T01:53:03.332Z,993.80
2022-12-29T01:54:03.152Z,993.78
2022-12-29T01:55:03.111Z,993.85
2022-12-29T01:56:03.132Z,993.81
2022-12-29T01:57:03.144Z,993.79
2022-12-29T01:58:03.102Z,993.76
2022-12-29T01:59:03.092Z,993.77
2022-12-29T02:00:03.090Z,993.75
2022-12-29T02:01:03.102Z,993.79
2022-12-29T02:02:03.140Z,993.71
2022-12-29T02:03:03.084Z,993.76
2022-12-29T02:04:03.057Z,993.80
2022-12-29T02:05:04.869Z,993.73
2022-12-29T02:06:03.021Z,993.72
2022-12-29T02:07:03.027Z,993.67
2022-12-29T02:08:02.977Z,993.63
2022-12-29T02:09:02.977Z,993.53
2022-12-29T02:10:03.032Z,993.61
2022-12-29T02:11:03.007Z,993.53
2022-12-29T02:12:03.015Z,993.62
2022-12-29T02:13:02.928Z,993.55
2022-12-29T02:14:03.876Z,993.61
2022-12-29T02:15:02.913Z,993.44
2022-12-29T02:16:02.965Z,993.54
2022-12-29T02:17:02.879Z,993.61
2022-12-29T02:18:02.879Z,993.61
2022-12-29T02:19:02.859Z,993.55
2022-12-29T02:20:02.856Z,993.54
2022-12-29T02:21:02.905Z,993.51
2022-12-29T02:22:02.844Z,993.64
2022-12-29T02:23:02.831Z,993.69
2022-12-29T02:24:02.974Z,993.56
2022-12-29T02:25:02.820Z,993.53
2022-12-29T02:26:02.820Z,993.57
2022-12-29T02:27:02.790Z,993.61
2022-12-29T02:28:02.777Z,993.65
2022-12-29T02:29:02.739Z,993.69
2022-12-29T02:30:02.755Z,993.53
2022-12-29T02:31:02.753Z,993.57
2022-12-29T02:32:02.836Z,993.45
2022-12-29T02:33:02.737Z,993.57
2022-12-29T02:34:02.725Z,993.53
2022-12-29T02:35:02.728Z,993.46
2022-12-29T02:36:02.699Z,993.49
2022-12-29T02:37:02.675Z,993.52
2022-12-29T02:38:02.703Z,993.45
2022-12-29T02:39:02.654Z,993.48
2022-12-29T02:40:02.688Z,993.55
2022-12-29T02:41:02.637Z,993.46
2022-12-29T02:42:02.639Z,993.42
2022-12-29T02:43:02.611Z,993.47
2022-12-29T02:44:02.628Z,993.49
2022-12-29T02:45:02.605Z,993.45
2022-12-29T02:46:02.645Z,993.44
2022-12-29T02:47:02.574Z,993.43
2022-12-29T02:48:02.555Z,993.35
2022-12-29T02:49:02.544Z,993.25
2022-12-29T02:50:02.534Z,993.39
2022-12-29T02:51:02.542Z,993.29
2022-12-29T02:52:02.529Z,993.65
2022-12-29T02:53:02.519Z,993.34
2022-12-29T02:54:02.506Z,993.23
2022-12-29T02:55:02.615Z,993.27
2022-12-29T02:56:02.473Z,993.30
2022-12-29T02:57:02.443Z,993.27
2022-12-29T02:58:02.443Z,993.26
2022-12-29T02:59:02.424Z,993.23
2022-12-29T03:00:02.462Z,993.38
2022-12-29T03:01:02.517Z,993.19
2022-12-29T03:02:02.537Z,993.42
2022-12-29T03:03:02.646Z,993.12
2022-12-29T03:04:02.386Z,993.16
2022-12-29T03:05:02.371Z,993.16
2022-12-29T03:06:02.362Z,993.10
2022-12-29T03:07:02.363Z,993.09
2022-12-29T03:08:02.357Z,993.10
2022-12-29T03:09:02.318Z,993.07
2022-12-29T03:10:02.350Z,993.14
2022-12-29T03:11:02.345Z,993.05
2022-12-29T03:12:02.300Z,993.20
2022-12-29T03:13:02.300Z,993.15
2022-12-29T03:14:02.276Z,993.15
2022-12-29T03:15:02.307Z,993.02
2022-12-29T03:16:02.257Z,993.07
2022-12-29T03:17:02.285Z,993.01
2022-12-29T03:18:02.223Z,993.02
2022-12-29T03:19:02.221Z,992.97
2022-12-29T03:20:02.216Z,992.89
2022-12-29T03:21:02.195Z,992.99
2022-12-29T03:22:02.187Z,992.87
2022-12-29T03:23:02.176Z,992.90
2022-12-29T03:24:02.199Z,992.93
2022-12-29T03:25:02.153Z,992.97
2022-12-29T03:26:10.666Z,993.01
2022-12-29T03:27:02.130Z,992.92
2022-12-29T03:28:02.099Z,992.94
2022-12-29T03:29:02.076Z,992.95
2022-12-29T03:30:09.609Z,992.91
2022-12-29T03:31:02.141Z,992.84
2022-12-29T03:32:02.068Z,992.91
2022-12-29T03:33:02.040Z,992.89
2022-12-29T03:34:02.043Z,992.88
2022-12-29T03:35:02.050Z,992.90
2022-12-29T03:36:02.039Z,992.79
2022-12-29T03:37:02.012Z,992.81
2022-12-29T03:38:01.998Z,992.98
2022-12-29T03:39:01.982Z,993.24
2022-12-29T03:40:01.977Z,992.88
2022-12-29T03:41:01.981Z,992.77
2022-12-29T03:42:01.948Z,992.81
2022-12-29T03:43:02.056Z,992.75
2022-12-29T03:44:01.989Z,992.73
2022-12-29T03:45:01.909Z,992.80
2022-12-29T03:46:01.960Z,992.75
2022-12-29T03:47:01.906Z,992.69
2022-12-29T03:48:01.939Z,992.75
2022-12-29T03:49:01.882Z,992.68
2022-12-29T03:50:01.857Z,992.70
2022-12-29T03:51:01.865Z,992.82
2022-12-29T03:52:01.859Z,992.71
2022-12-29T03:53:01.829Z,992.71
2022-12-29T03:54:01.835Z,992.68
2022-12-29T03:55:01.795Z,992.62
2022-12-29T03:56:01.843Z,992.64
2022-12-29T03:57:01.854Z,992.66
2022-12-29T03:58:01.799Z,992.71
2022-12-29T03:59:01.780Z,992.71
2022-12-29T04:00:01.758Z,992.64
2022-12-29T04:01:01.820Z,992.80
2022-12-29T04:02:01.908Z,992.58
2022-12-29T04:03:01.907Z,992.64
2022-12-29T04:04:01.711Z,992.69
2022-12-29T04:05:01.699Z,992.65
2022-12-29T04:06:01.684Z,992.61
2022-12-29T04:07:01.678Z,992.66
2022-12-29T04:08:01.686Z,992.63
2022-12-29T04:09:01.664Z,992.65
2022-12-29T04:10:01.663Z,992.68
2022-12-29T04:11:01.617Z,992.59
2022-12-29T04:12:01.635Z,992.66
2022-12-29T04:13:01.604Z,992.62
2022-12-29T04:14:01.599Z,992.59
2022-12-29T04:15:01.591Z,992.62
2022-12-29T04:16:01.595Z,992.78
2022-12-29T04:17:01.551Z,992.58
2022-12-29T04:18:01.547Z,992.66
2022-12-29T04:19:01.535Z,992.62
2022-12-29T04:20:01.538Z,992.61
2022-12-29T04:21:01.507Z,992.39
2022-12-29T04:22:01.514Z,992.54
2022-12-29T04:23:01.499Z,992.57
2022-12-29T04:24:01.546Z,992.41
2022-12-29T04:25:01.477Z,992.69
2022-12-29T04:26:01.503Z,992.55
2022-12-29T04:27:01.444Z,992.39
2022-12-29T04:28:01.507Z,992.61
2022-12-29T04:29:01.422Z,992.40
2022-12-29T04:30:01.434Z,992.41
2022-12-29T04:31:01.519Z,992.47
2022-12-29T04:32:01.411Z,992.46
2022-12-29T04:33:01.401Z,992.46
2022-12-29T04:34:01.389Z,992.44
2022-12-29T04:35:01.360Z,992.39
2022-12-29T04:36:01.341Z,992.49
2022-12-29T04:37:01.375Z,992.39
2022-12-29T04:38:01.331Z,992.54
2022-12-29T04:39:01.343Z,992.41
2022-12-29T04:40:01.329Z,992.41
2022-12-29T04:41:01.285Z,992.47
2022-12-29T04:42:01.303Z,992.28
2022-12-29T04:43:01.273Z,992.45
2022-12-29T04:44:01.283Z,992.26
2022-12-29T04:45:01.242Z,992.39
2022-12-29T04:46:01.298Z,992.30
2022-12-29T04:47:01.245Z,992.29
2022-12-29T04:48:01.230Z,992.57
2022-12-29T04:49:01.207Z,992.32
2022-12-29T04:50:01.231Z,992.39
2022-12-29T04:51:01.192Z,992.35
2022-12-29T04:52:01.201Z,992.48
2022-12-29T04:53:01.161Z,992.22
2022-12-29T04:54:01.169Z,992.37
2022-12-29T04:55:01.152Z,992.44
2022-12-29T04:56:01.151Z,992.47
2022-12-29T04:57:01.142Z,992.31
2022-12-29T04:58:01.131Z,992.37
2022-12-29T04:59:01.283Z,992.29
2022-12-29T05:00:01.102Z,992.32
2022-12-29T05:01:01.091Z,992.43
2022-12-29T05:02:01.189Z,992.42
2022-12-29T05:03:01.305Z,992.36
2022-12-29T05:04:01.134Z,992.28
2022-12-29T05:05:01.062Z,992.51
2022-12-29T05:06:01.031Z,992.46
2022-12-29T05:07:01.026Z,992.34
2022-12-29T05:08:01.030Z,992.42
2022-12-29T05:09:00.994Z,992.53
2022-12-29T05:10:00.979Z,992.36
2022-12-29T05:11:01.005Z,992.64
2022-12-29T05:12:00.972Z,992.61
2022-12-29T05:13:00.972Z,992.60
2022-12-29T05:14:00.939Z,992.48
2022-12-29T05:15:00.955Z,992.55
2022-12-29T05:16:00.987Z,992.60
2022-12-29T05:17:00.938Z,992.50
2022-12-29T05:18:00.907Z,992.46
2022-12-29T05:19:00.925Z,992.48
2022-12-29T05:20:00.876Z,992.48
2022-12-29T05:21:00.881Z,992.50
2022-12-29T05:22:00.871Z,992.48
2022-12-29T05:23:00.868Z,992.46
2022-12-29T05:24:00.865Z,992.51
2022-12-29T05:25:00.893Z,992.42
2022-12-29T05:26:01.756Z,992.37
2022-12-29T05:27:00.810Z,992.37
2022-12-29T05:28:00.820Z,992.48
2022-12-29T05:29:00.813Z,992.42
2022-12-29T05:30:00.805Z,992.34
2022-12-29T05:31:00.797Z,992.37
2022-12-29T05:32:00.763Z,992.44
2022-12-29T05:33:00.758Z,992.39
2022-12-29T05:34:00.747Z,992.28
2022-12-29T05:35:00.779Z,992.34
2022-12-29T05:36:00.715Z,992.26
2022-12-29T05:37:00.710Z,992.27
2022-12-29T05:38:00.703Z,992.29
2022-12-29T05:39:00.677Z,992.33
2022-12-29T05:40:00.657Z,992.27
2022-12-29T05:41:00.943Z,992.27
2022-12-29T05:42:00.673Z,992.18
2022-12-29T05:43:00.686Z,992.15
2022-12-29T05:44:00.634Z,992.19
2022-12-29T05:45:00.606Z,992.13
2022-12-29T05:46:00.613Z,992.22
2022-12-29T05:47:00.715Z,992.14
2022-12-29T05:48:00.552Z,992.11
2022-12-29T05:49:00.576Z,992.13
2022-12-29T05:50:00.560Z,991.97
2022-12-29T05:51:00.570Z,992.08
2022-12-29T05:52:00.534Z,992.14
2022-12-29T05:53:00.534Z,992.05
2022-12-29T05:54:00.521Z,992.08
2022-12-29T05:55:00.535Z,992.02
2022-12-29T05:56:00.500Z,991.96
2022-12-29T05:57:00.508Z,992.06
2022-12-29T05:58:00.482Z,992.12
2022-12-29T05:59:00.470Z,992.13
2022-12-29T06:00:00.476Z,992.08
2022-12-29T06:01:00.604Z,992.10
2022-12-29T06:02:00.720Z,991.97
2022-12-29T06:03:00.772Z,991.93
2022-12-29T06:04:00.680Z,991.86
2022-12-29T06:05:00.418Z,992.10
2022-12-29T06:06:00.402Z,992.01
2022-12-29T06:07:00.363Z,991.89
2022-12-29T06:08:00.387Z,991.97
2022-12-29T06:09:00.353Z,991.92
2022-12-29T06:10:00.341Z,991.95
2022-12-29T06:11:00.322Z,991.85
2022-12-29T06:12:00.300Z,992.00
2022-12-29T06:13:00.302Z,991.88
2022-12-29T06:14:00.315Z,991.80
2022-12-29T06:15:00.297Z,991.80
2022-12-29T06:16:07.013Z,991.81
2022-12-29T06:17:00.288Z,991.89
2022-12-29T06:18:00.239Z,992.12
2022-12-29T06:19:00.251Z,992.80
2022-12-29T06:20:00.253Z,993.17
2022-12-29T06:21:00.232Z,992.81
2022-12-29T06:22:00.196Z,993.17
2022-12-29T06:23:00.210Z,993.11
2022-12-29T06:24:00.161Z,993.20
2022-12-29T06:25:04.831Z,993.27
2022-12-29T06:26:01.169Z,993.29
2022-12-29T06:27:00.133Z,993.06
2022-12-29T06:28:00.148Z,993.23
2022-12-29T06:29:00.139Z,993.38
2022-12-29T06:30:00.131Z,993.12
2022-12-29T06:31:00.127Z,993.22
2022-12-29T06:32:00.279Z,992.98
2022-12-29T06:33:00.123Z,993.22
2022-12-29T06:34:04.975Z,992.97
2022-12-29T06:35:01.075Z,993.07
2022-12-29T06:36:00.055Z,993.03
2022-12-29T06:37:00.047Z,993.02
2022-12-29T06:38:00.035Z,993.09
2022-12-29T06:39:00.030Z,992.98
2022-12-29T06:40:00.001Z,993.07
2022-12-29T06:41:00.036Z,993.17
2022-12-29T06:41:59.981Z,993.29
2022-12-29T06:43:00.008Z,993.24
2022-12-29T06:43:59.979Z,993.02
2022-12-29T06:44:59.967Z,993.08
2022-12-29T06:45:59.997Z,993.10
2022-12-29T06:46:59.942Z,993.02
2022-12-29T06:47:59.917Z,993.02
2022-12-29T06:48:59.927Z,992.99
2022-12-29T06:49:59.903Z,993.03
2022-12-29T06:50:59.899Z,993.11
2022-12-29T06:51:59.861Z,993.00
2022-12-29T06:52:59.886Z,993.04
2022-12-29T06:53:59.850Z,993.01
2022-12-29T06:54:59.843Z,993.29
2022-12-29T06:55:59.832Z,993.07
2022-12-29T06:56:59.838Z,992.92
2022-12-29T06:57:59.811Z,993.06
2022-12-29T06:58:59.903Z,993.13
2022-12-29T06:59:59.788Z,993.07
2022-12-29T07:01:06.826Z,993.21
2022-12-29T07:01:59.950Z,993.19
2022-12-29T07:03:02.204Z,993.26
2022-12-29T07:03:59.741Z,993.45
2022-12-29T07:04:59.733Z,993.15
2022-12-29T07:05:59.719Z,993.29
2022-12-29T07:06:59.726Z,993.30
2022-12-29T07:07:59.690Z,993.38
2022-12-29T07:08:59.701Z,993.22
2022-12-29T07:09:59.676Z,993.20
2022-12-29T07:10:59.685Z,993.18
2022-12-29T07:11:59.652Z,993.27
2022-12-29T07:12:59.658Z,993.34
2022-12-29T07:14:04.203Z,993.37
2022-12-29T07:14:59.649Z,993.33
2022-12-29T07:15:59.607Z,993.40
2022-12-29T07:16:59.638Z,993.39
2022-12-29T07:17:59.598Z,993.58
2022-12-29T07:18:59.573Z,993.40
2022-12-29T07:19:59.558Z,993.35
2022-12-29T07:20:59.641Z,993.45
2022-12-29T07:21:59.546Z,993.33
2022-12-29T07:22:59.544Z,993.39
2022-12-29T07:23:59.533Z,993.39
2022-12-29T07:24:59.521Z,993.46
2022-12-29T07:25:59.502Z,993.45
2022-12-29T07:26:59.513Z,993.47
2022-12-29T07:27:59.476Z,993.52
2022-12-29T07:28:59.477Z,993.51
2022-12-29T07:29:59.461Z,993.49
2022-12-29T07:30:59.459Z,993.57
2022-12-29T07:31:59.448Z,993.59
2022-12-29T07:32:59.442Z,993.63
2022-12-29T07:33:59.489Z,993.66
2022-12-29T07:34:59.416Z,993.75
2022-12-29T07:35:59.381Z,993.70
2022-12-29T07:36:59.392Z,993.71
2022-12-29T07:37:59.369Z,993.64
2022-12-29T07:38:59.360Z,993.89
2022-12-29T07:39:59.339Z,993.73
2022-12-29T07:40:59.355Z,993.56
2022-12-29T07:42:04.559Z,993.62
2022-12-29T07:43:00.343Z,993.58
2022-12-29T07:43:59.313Z,993.68
2022-12-29T07:44:59.312Z,993.66
2022-12-29T07:45:59.377Z,993.65
2022-12-29T07:46:59.459Z,993.73
2022-12-29T07:47:59.257Z,993.68
2022-12-29T07:48:59.262Z,993.57
2022-12-29T07:49:59.241Z,993.63
2022-12-29T07:50:59.237Z,993.70
2022-12-29T07:51:59.227Z,993.75
2022-12-29T07:52:59.241Z,993.67
2022-12-29T07:53:59.207Z,993.76
2022-12-29T07:54:59.189Z,993.89
2022-12-29T07:55:59.176Z,993.76
2022-12-29T07:56:59.178Z,993.82
2022-12-29T07:57:59.180Z,993.92
2022-12-29T07:58:59.156Z,993.77
2022-12-29T07:59:59.127Z,993.84
2022-12-29T08:00:59.180Z,993.81
2022-12-29T08:01:59.228Z,993.87
2022-12-29T08:02:59.111Z,993.82
2022-12-29T08:03:59.170Z,993.97
2022-12-29T08:04:59.172Z,993.90
2022-12-29T08:05:59.063Z,993.95
2022-12-29T08:06:59.063Z,993.91
2022-12-29T08:07:59.033Z,993.97
2022-12-29T08:09:04.113Z,994.02
2022-12-29T08:10:00.035Z,993.94
2022-12-29T08:10:59.016Z,993.94
2022-12-29T08:11:58.986Z,993.96
2022-12-29T08:12:59.011Z,993.93
2022-12-29T08:13:58.975Z,994.05
2022-12-29T08:14:58.971Z,994.03
2022-12-29T08:15:59.036Z,993.98
2022-12-29T08:16:58.967Z,993.95
2022-12-29T08:17:58.932Z,993.95
2022-12-29T08:18:58.932Z,993.97
2022-12-29T08:19:58.900Z,994.00
2022-12-29T08:20:58.905Z,993.95
2022-12-29T08:21:58.895Z,994.01
2022-12-29T08:22:58.902Z,994.02
2022-12-29T08:23:58.866Z,994.07
2022-12-29T08:24:58.866Z,994.15
2022-12-29T08:25:58.832Z,994.17
2022-12-29T08:27:01.743Z,994.13
2022-12-29T08:27:59.822Z,994.21
2022-12-29T08:28:58.824Z,994.24
2022-12-29T08:29:58.798Z,994.23
2022-12-29T08:30:58.848Z,994.14
2022-12-29T08:31:58.786Z,994.20
2022-12-29T08:32:58.777Z,994.07
2022-12-29T08:33:58.761Z,994.19
2022-12-29T08:34:58.779Z,994.55
2022-12-29T08:35:58.840Z,994.27
2022-12-29T08:36:58.781Z,994.24
2022-12-29T08:37:58.709Z,994.26
2022-12-29T08:38:58.719Z,994.26
2022-12-29T08:39:58.699Z,994.23
2022-12-29T08:40:58.689Z,994.36
2022-12-29T08:41:58.670Z,994.11
2022-12-29T08:42:58.662Z,994.09
2022-12-29T08:43:58.652Z,994.28
2022-12-29T08:44:58.685Z,994.20
2022-12-29T08:45:58.681Z,994.22
2022-12-29T08:46:58.669Z,994.19
2022-12-29T08:47:58.619Z,994.21
2022-12-29T08:48:58.626Z,994.28
2022-12-29T08:49:58.604Z,994.30
2022-12-29T08:50:58.583Z,994.29
2022-12-29T08:51:58.551Z,994.28
2022-12-29T08:52:58.567Z,994.46
2022-12-29T08:53:58.547Z,994.32
2022-12-29T08:54:58.529Z,994.45
2022-12-29T08:56:04.124Z,994.26
2022-12-29T08:56:59.510Z,994.39
2022-12-29T08:57:58.479Z,994.37
2022-12-29T08:58:58.510Z,994.27
2022-12-29T08:59:58.465Z,994.18
2022-12-29T09:00:58.483Z,994.34
2022-12-29T09:01:58.575Z,994.24
2022-12-29T09:02:58.732Z,994.20
2022-12-29T09:04:16.259Z,994.46
2022-12-29T09:04:59.457Z,994.26
2022-12-29T09:05:59.093Z,994.26
2022-12-29T09:06:58.639Z,994.32
2022-12-29T09:07:58.373Z,994.28
2022-12-29T09:08:58.422Z,994.36
2022-12-29T09:09:58.357Z,994.29
2022-12-29T09:10:58.390Z,994.23
2022-12-29T09:11:58.335Z,994.30
2022-12-29T09:12:58.340Z,994.32
2022-12-29T09:13:58.330Z,994.36
2022-12-29T09:14:58.325Z,994.23
2022-12-29T09:15:58.323Z,994.24
2022-12-29T09:16:58.296Z,994.20
2022-12-29T09:17:58.287Z,994.18
2022-12-29T09:18:58.264Z,994.20
2022-12-29T09:19:58.258Z,994.19
2022-12-29T09:20:58.246Z,994.28
2022-12-29T09:21:59.218Z,994.35
2022-12-29T09:22:58.215Z,994.30
2022-12-29T09:23:58.552Z,994.25
2022-12-29T09:24:58.185Z,994.17
2022-12-29T09:25:58.202Z,994.26
2022-12-29T09:26:58.176Z,994.19
2022-12-29T09:27:58.167Z,994.24
2022-12-29T09:28:58.638Z,994.25
2022-12-29T09:29:58.175Z,994.30
2022-12-29T09:30:58.171Z,994.18
2022-12-29T09:31:58.140Z,994.17
2022-12-29T09:32:58.116Z,994.17
2022-12-29T09:33:58.107Z,994.19
2022-12-29T09:34:58.077Z,994.24
2022-12-29T09:35:58.109Z,994.30
2022-12-29T09:36:58.892Z,994.26
2022-12-29T09:37:58.288Z,994.33
2022-12-29T09:38:58.140Z,994.38
2022-12-29T09:39:58.144Z,994.32
2022-12-29T09:40:58.036Z,994.29
2022-12-29T09:41:58.009Z,994.31
2022-12-29T09:42:57.998Z,994.31
2022-12-29T09:43:58.033Z,994.36
2022-12-29T09:44:57.978Z,994.33
2022-12-29T09:45:57.982Z,994.44
2022-12-29T09:46:58.025Z,994.41
2022-12-29T09:47:57.974Z,994.45
2022-12-29T09:48:57.961Z,994.49
2022-12-29T09:49:57.944Z,994.43
2022-12-29T09:50:57.927Z,994.45
2022-12-29T09:51:57.905Z,994.43
2022-12-29T09:52:57.893Z,994.29
2022-12-29T09:53:57.882Z,994.44
2022-12-29T09:55:02.919Z,994.48
2022-12-29T09:55:58.859Z,994.36
2022-12-29T09:56:57.854Z,994.22
2022-12-29T09:57:57.850Z,994.24
2022-12-29T09:58:57.828Z,994.32
2022-12-29T09:59:57.809Z,994.28
2022-12-29T10:00:57.805Z,994.27
2022-12-29T10:01:58.076Z,994.19
2022-12-29T10:02:57.884Z,994.36
2022-12-29T10:03:57.783Z,994.31
2022-12-29T10:04:57.763Z,994.22
2022-12-29T10:05:57.783Z,994.29
2022-12-29T10:07:28.091Z,994.32
2022-12-29T10:07:58.940Z,994.30
2022-12-29T10:08:57.726Z,994.32
2022-12-29T10:09:57.762Z,994.33
2022-12-29T10:10:57.703Z,994.27
2022-12-29T10:11:57.697Z,994.34
2022-12-29T10:12:57.696Z,994.13
2022-12-29T10:13:57.672Z,994.31
2022-12-29T10:14:57.638Z,994.21
2022-12-29T10:15:57.855Z,994.04
2022-12-29T10:16:57.804Z,994.35
2022-12-29T10:17:57.628Z,994.20
2022-12-29T10:18:57.609Z,994.25
2022-12-29T10:19:57.605Z,994.20
2022-12-29T10:20:57.583Z,994.37
2022-12-29T10:21:57.563Z,994.31
2022-12-29T10:22:57.566Z,994.20
2022-12-29T10:23:57.583Z,994.30
2022-12-29T10:24:57.580Z,994.29
2022-12-29T10:25:58.517Z,994.23
2022-12-29T10:26:57.516Z,994.11
2022-12-29T10:27:57.534Z,994.37
2022-12-29T10:28:57.511Z,994.20
2022-12-29T10:29:57.507Z,994.26
2022-12-29T10:30:57.555Z,994.43
2022-12-29T10:31:57.832Z,994.36
2022-12-29T10:32:57.462Z,994.46
2022-12-29T10:33:57.459Z,994.37
2022-12-29T10:34:57.445Z,994.35
2022-12-29T10:35:57.456Z,994.67
2022-12-29T10:36:57.421Z,994.40
2022-12-29T10:37:57.421Z,994.30
2022-12-29T10:38:57.483Z,994.06
2022-12-29T10:39:57.385Z,994.16
2022-12-29T10:40:57.431Z,994.22
2022-12-29T10:41:57.373Z,994.15
2022-12-29T10:42:57.368Z,994.20
2022-12-29T10:43:57.650Z,994.18
2022-12-29T10:44:57.325Z,994.17
2022-12-29T10:45:57.387Z,994.29
2022-12-29T10:46:57.284Z,994.35
2022-12-29T10:47:57.317Z,994.25
2022-12-29T10:48:57.298Z,994.34
2022-12-29T10:49:57.338Z,994.52
2022-12-29T10:51:01.720Z,994.41
2022-12-29T10:51:58.281Z,994.55
2022-12-29T10:52:57.243Z,994.51
2022-12-29T10:53:57.224Z,994.42
2022-12-29T10:54:57.256Z,994.33
2022-12-29T10:55:57.202Z,994.76
2022-12-29T10:56:57.190Z,994.38
2022-12-29T10:57:57.192Z,994.29
2022-12-29T10:58:57.176Z,994.31
2022-12-29T10:59:57.180Z,994.38
2022-12-29T11:00:57.250Z,994.25
2022-12-29T11:01:57.345Z,994.20
2022-12-29T11:02:57.318Z,994.21
2022-12-29T11:03:57.139Z,994.33
2022-12-29T11:04:57.101Z,994.14
2022-12-29T11:05:57.106Z,994.44
2022-12-29T11:06:57.064Z,994.45
2022-12-29T11:07:57.084Z,994.38
2022-12-29T11:08:57.055Z,994.40
2022-12-29T11:09:57.390Z,994.38
2022-12-29T11:10:57.041Z,994.33
2022-12-29T11:11:57.040Z,994.40
2022-12-29T11:12:57.019Z,994.27
2022-12-29T11:13:57.035Z,994.56
2022-12-29T11:14:57.013Z,994.22
2022-12-29T11:15:57.008Z,994.27
2022-12-29T11:16:57.022Z,994.20
2022-12-29T11:17:56.973Z,994.35
2022-12-29T11:18:56.949Z,994.33
2022-12-29T11:19:56.945Z,994.25
2022-12-29T11:20:56.926Z,994.20
2022-12-29T11:21:56.935Z,994.33
2022-12-29T11:22:56.898Z,994.24
2022-12-29T11:23:56.908Z,994.38
2022-12-29T11:24:56.897Z,994.37
2022-12-29T11:25:56.901Z,994.44
2022-12-29T11:26:56.859Z,994.35
2022-12-29T11:27:56.854Z,994.26
2022-12-29T11:28:56.850Z,994.22
2022-12-29T11:29:56.836Z,994.29
2022-12-29T11:30:56.822Z,994.34
2022-12-29T11:31:56.869Z,994.34
2022-12-29T11:32:56.790Z,994.28
2022-12-29T11:33:56.776Z,994.24
2022-12-29T11:34:56.780Z,994.22
2022-12-29T11:35:56.775Z,994.23
2022-12-29T11:36:56.748Z,994.29
2022-12-29T11:37:56.792Z,994.50
2022-12-29T11:38:56.735Z,994.30
2022-12-29T11:39:56.740Z,994.18
2022-12-29T11:40:56.748Z,994.20
2022-12-29T11:41:56.694Z,994.17
2022-12-29T11:42:56.691Z,994.36
2022-12-29T11:43:56.702Z,994.57
2022-12-29T11:44:56.666Z,994.38
2022-12-29T11:45:56.795Z,994.20
2022-12-29T11:46:56.642Z,994.10
2022-12-29T11:47:56.700Z,994.20
2022-12-29T11:48:56.615Z,994.18
2022-12-29T11:49:56.624Z,994.24
2022-12-29T11:50:56.596Z,994.07
2022-12-29T11:51:56.608Z,994.22
2022-12-29T11:52:56.590Z,994.31
2022-12-29T11:53:56.602Z,994.16
2022-12-29T11:54:56.569Z,994.23
2022-12-29T11:55:56.564Z,994.13
2022-12-29T11:56:56.535Z,994.18
2022-12-29T11:57:56.570Z,994.27
2022-12-29T11:58:56.502Z,994.17
2022-12-29T11:59:56.556Z,994.15
2022-12-29T12:00:56.498Z,994.27
2022-12-29T12:01:56.695Z,994.23
2022-12-29T12:02:56.508Z,994.35
2022-12-29T12:03:56.546Z,994.30
2022-12-29T12:04:56.434Z,994.42
2022-12-29T12:05:56.480Z,994.52
2022-12-29T12:06:56.429Z,994.28
2022-12-29T12:07:56.440Z,994.51
2022-12-29T12:08:56.410Z,994.33
2022-12-29T12:10:00.235Z,994.32
2022-12-29T12:10:57.485Z,994.25
2022-12-29T12:11:56.414Z,994.30
2022-12-29T12:12:56.371Z,994.29
2022-12-29T12:13:56.375Z,994.33
2022-12-29T12:14:56.336Z,994.34
2022-12-29T12:15:57.465Z,994.29
2022-12-29T12:16:56.429Z,994.23
2022-12-29T12:17:56.311Z,994.46
2022-12-29T12:18:56.287Z,994.25
2022-12-29T12:19:56.311Z,994.19
2022-12-29T12:20:56.271Z,994.29
2022-12-29T12:21:56.348Z,994.59
2022-12-29T12:22:56.245Z,994.43
2022-12-29T12:23:56.257Z,994.32
2022-12-29T12:24:56.234Z,994.25
2022-12-29T12:25:56.229Z,994.35
2022-12-29T12:26:56.215Z,994.34
2022-12-29T12:27:56.231Z,994.35
2022-12-29T12:28:56.158Z,994.48